createdAt,value
2023-03-17T00:01:56.800Z,5.95
2023-03-17T00:04:27.304Z,5.88
2023-03-17T00:06:55.297Z,5.83
2023-03-17T00:09:22.791Z,5.78
2023-03-17T00:11:50.764Z,5.74
2023-03-17T00:14:19.874Z,5.87
2023-03-17T00:16:52.772Z,5.86
2023-03-17T00:19:35.230Z,5.77
2023-03-17T00:22:06.097Z,5.70
2023-03-17T00:24:33.562Z,5.68
2023-03-17T00:27:01.139Z,5.68
2023-03-17T00:29:28.358Z,5.66
2023-03-17T00:31:57.737Z,5.67
2023-03-17T00:34:25.299Z,5.60
2023-03-17T00:36:53.368Z,5.54
2023-03-17T00:39:25.294Z,5.53
2023-03-17T00:41:54.787Z,5.53
2023-03-17T00:44:21.965Z,5.69
2023-03-17T00:46:49.220Z,5.66
2023-03-17T00:49:25.209Z,5.70
2023-03-17T00:51:53.052Z,5.67
2023-03-17T00:54:23.213Z,5.62
2023-03-17T00:56:52.221Z,5.59
2023-03-17T00:59:42.117Z,5.56
2023-03-17T01:02:14.886Z,5.44
2023-03-17T01:04:47.550Z,5.45
2023-03-17T01:07:17.608Z,5.49
2023-03-17T01:09:47.306Z,5.43
2023-03-17T01:12:14.699Z,5.34
2023-03-17T01:14:42.101Z,5.32
2023-03-17T01:17:18.347Z,5.39
2023-03-17T01:19:47.773Z,5.36
2023-03-17T01:22:15.105Z,5.36
2023-03-17T01:24:42.341Z,5.31
2023-03-17T01:27:10.302Z,5.29
2023-03-17T01:29:37.652Z,5.28
2023-03-17T01:32:06.365Z,5.27
2023-03-17T01:34:33.765Z,5.19
2023-03-17T01:37:01.629Z,5.12
2023-03-17T01:39:29.259Z,5.07
2023-03-17T01:42:01.294Z,5.09
2023-03-17T01:44:29.528Z,5.11
2023-03-17T01:46:57.600Z,5.01
2023-03-17T01:49:35.371Z,5.21
2023-03-17T01:52:14.308Z,5.29
2023-03-17T01:54:59.066Z,5.26
2023-03-17T01:57:37.104Z,5.12
2023-03-17T02:00:12.451Z,5.03
2023-03-17T02:02:50.137Z,5.07
2023-03-17T02:05:27.181Z,5.04
2023-03-17T02:07:55.981Z,5.02
2023-03-17T02:10:30.373Z,5.00
2023-03-17T02:13:03.942Z,4.97
2023-03-17T02:15:48.494Z,5.03
2023-03-17T02:18:20.172Z,5.08
2023-03-17T02:21:07.163Z,5.04
2023-03-17T02:23:34.594Z,4.99
2023-03-17T02:26:03.993Z,4.98
2023-03-17T02:28:31.715Z,5.09
2023-03-17T02:30:59.064Z,5.12
2023-03-17T02:33:27.608Z,5.04
2023-03-17T02:35:56.462Z,4.98
2023-03-17T02:38:23.644Z,5.01
2023-03-17T02:40:52.512Z,5.03
2023-03-17T02:43:19.881Z,5.08
2023-03-17T02:45:47.114Z,5.13
2023-03-17T02:48:14.722Z,5.03
2023-03-17T02:50:41.947Z,5.02
2023-03-17T02:53:09.235Z,5.08
2023-03-17T02:55:36.630Z,5.14
2023-03-17T02:58:04.260Z,5.02
2023-03-17T03:00:31.901Z,4.98
2023-03-17T03:02:59.456Z,4.89
2023-03-17T03:05:27.084Z,4.85
2023-03-17T03:07:54.540Z,4.84
2023-03-17T03:10:22.061Z,4.84
2023-03-17T03:12:49.239Z,4.79
2023-03-17T03:15:16.595Z,4.77
2023-03-17T03:17:43.777Z,4.74
2023-03-17T03:20:12.924Z,4.76
2023-03-17T03:22:40.601Z,4.70
2023-03-17T03:25:08.707Z,4.70
2023-03-17T03:27:36.080Z,4.70
2023-03-17T03:30:07.394Z,4.64
2023-03-17T03:32:34.924Z,4.66
2023-03-17T03:35:02.222Z,4.53
2023-03-17T03:37:29.514Z,4.45
2023-03-17T03:39:56.763Z,4.49
2023-03-17T03:42:23.972Z,4.43
2023-03-17T03:44:51.350Z,4.47
2023-03-17T03:47:18.638Z,4.48
2023-03-17T03:49:46.132Z,4.45
2023-03-17T03:52:13.449Z,4.45
2023-03-17T03:54:40.780Z,4.34
2023-03-17T03:57:08.087Z,4.29
2023-03-17T03:59:35.244Z,4.29
2023-03-17T04:02:02.554Z,4.32
2023-03-17T04:04:30.261Z,4.39
2023-03-17T04:06:57.586Z,4.34
2023-03-17T04:09:25.263Z,4.32
2023-03-17T04:11:52.724Z,4.22
2023-03-17T04:14:19.981Z,4.23
2023-03-17T04:16:47.297Z,4.22
2023-03-17T04:19:15.255Z,4.19
2023-03-17T04:21:43.122Z,4.19
2023-03-17T04:24:10.321Z,4.24
2023-03-17T04:26:37.581Z,4.18
2023-03-17T04:29:08.010Z,4.14
2023-03-17T04:31:36.839Z,4.07
2023-03-17T04:34:04.067Z,4.05
2023-03-17T04:36:31.296Z,4.08
2023-03-17T04:38:58.515Z,4.03
2023-03-17T04:41:25.727Z,4.03
2023-03-17T04:43:52.919Z,4.05
2023-03-17T04:46:20.453Z,4.01
2023-03-17T04:48:47.721Z,3.91
2023-03-17T04:51:14.976Z,3.86
2023-03-17T04:53:42.845Z,3.90
2023-03-17T04:56:10.633Z,3.86
2023-03-17T04:58:38.472Z,3.93
2023-03-17T05:01:07.153Z,3.88
2023-03-17T05:03:34.755Z,3.87
2023-03-17T05:06:04.048Z,3.90
2023-03-17T05:08:31.666Z,3.94
2023-03-17T05:10:59.336Z,4.01
2023-03-17T05:13:27.296Z,4.06
2023-03-17T05:15:56.212Z,4.04
2023-03-17T05:18:25.811Z,3.99
2023-03-17T05:20:53.797Z,3.89
2023-03-17T05:23:22.916Z,3.90
2023-03-17T05:25:50.271Z,3.83
2023-03-17T05:28:18.199Z,3.84
2023-03-17T05:30:45.958Z,3.87
2023-03-17T05:33:14.566Z,3.86
2023-03-17T05:35:42.145Z,3.87
2023-03-17T05:38:12.707Z,3.92
2023-03-17T05:40:40.004Z,3.88
2023-03-17T05:43:07.290Z,3.89
2023-03-17T05:45:34.721Z,3.90
2023-03-17T05:48:02.129Z,3.81
2023-03-17T05:50:29.595Z,3.80
2023-03-17T05:52:56.872Z,3.80
2023-03-17T05:55:24.050Z,3.79
2023-03-17T05:57:51.387Z,3.84
2023-03-17T06:00:20.955Z,3.86
2023-03-17T06:02:48.329Z,3.87
2023-03-17T06:05:16.208Z,3.89
2023-03-17T06:07:53.001Z,3.87
2023-03-17T06:10:22.966Z,3.96
2023-03-17T06:12:50.387Z,3.98
2023-03-17T06:15:17.809Z,4.01
2023-03-17T06:17:45.842Z,4.06
2023-03-17T06:20:14.225Z,4.10
2023-03-17T06:23:00.477Z,4.17
2023-03-17T06:25:30.274Z,4.30
2023-03-17T06:27:57.804Z,4.43
2023-03-17T06:30:25.077Z,4.45
2023-03-17T06:32:52.341Z,4.51
2023-03-17T06:35:19.597Z,4.59
2023-03-17T06:37:46.875Z,4.76
2023-03-17T06:40:16.073Z,4.80
2023-03-17T06:42:43.630Z,4.85
2023-03-17T06:45:12.106Z,5.11
2023-03-17T06:47:39.755Z,5.21
2023-03-17T06:50:12.277Z,5.22
2023-03-17T06:52:40.799Z,5.28
2023-03-17T06:55:10.299Z,5.46
2023-03-17T06:57:37.690Z,5.52
2023-03-17T07:00:06.734Z,5.52
2023-03-17T07:02:34.926Z,5.64
2023-03-17T07:05:04.595Z,5.79
2023-03-17T07:07:32.455Z,5.93
2023-03-17T07:09:59.611Z,5.94
2023-03-17T07:12:27.228Z,5.95
2023-03-17T07:14:54.519Z,6.07
2023-03-17T07:17:21.660Z,6.17
2023-03-17T07:19:49.103Z,6.34
2023-03-17T07:22:16.351Z,6.43
2023-03-17T07:24:44.762Z,6.55
2023-03-17T07:27:11.988Z,6.61
2023-03-17T07:29:39.260Z,6.73
2023-03-17T07:32:08.249Z,6.82
2023-03-17T07:34:36.566Z,6.95
2023-03-17T07:37:05.200Z,7.09
2023-03-17T07:39:32.971Z,7.16
2023-03-17T07:42:00.223Z,7.27
2023-03-17T07:44:27.540Z,7.34
2023-03-17T07:46:55.398Z,7.45
2023-03-17T07:49:38.184Z,7.61
2023-03-17T07:52:10.266Z,7.67
2023-03-17T07:54:37.672Z,7.70
2023-03-17T07:57:06.310Z,7.84
2023-03-17T07:59:34.033Z,8.04
2023-03-17T08:02:01.622Z,8.20
2023-03-17T08:04:29.442Z,8.39
2023-03-17T08:06:57.659Z,8.51
2023-03-17T08:09:25.614Z,8.69
2023-03-17T08:11:52.868Z,8.79
2023-03-17T08:14:20.435Z,8.79
2023-03-17T08:16:48.077Z,8.94
2023-03-17T08:19:16.253Z,8.97
2023-03-17T08:21:43.472Z,9.01
2023-03-17T08:24:11.058Z,9.07
2023-03-17T08:26:38.324Z,9.05
2023-03-17T08:29:05.863Z,9.17
2023-03-17T08:31:33.923Z,9.28
2023-03-17T08:34:02.695Z,9.20
2023-03-17T08:36:30.673Z,9.26
2023-03-17T08:38:58.670Z,9.35
2023-03-17T08:41:28.203Z,9.68
2023-03-17T08:43:56.178Z,9.49
2023-03-17T08:46:29.598Z,9.43
2023-03-17T08:48:58.805Z,9.66
2023-03-17T08:51:31.667Z,9.77
2023-03-17T08:53:59.632Z,9.64
2023-03-17T08:56:28.270Z,9.52
2023-03-17T08:58:56.073Z,9.77
2023-03-17T09:01:24.485Z,9.97
2023-03-17T09:03:54.678Z,10.00
2023-03-17T09:06:22.819Z,10.01
2023-03-17T09:08:55.163Z,10.15
2023-03-17T09:11:28.738Z,10.23
2023-03-17T09:13:56.490Z,10.35
2023-03-17T09:16:24.662Z,10.23
2023-03-17T09:18:51.932Z,10.29
2023-03-17T09:21:19.489Z,10.21
2023-03-17T09:23:46.919Z,10.31
2023-03-17T09:26:14.832Z,10.17
2023-03-17T09:28:42.830Z,10.02
2023-03-17T09:31:12.377Z,10.40
2023-03-17T09:33:41.569Z,10.67
2023-03-17T09:36:10.547Z,10.93
2023-03-17T09:38:39.066Z,11.07
2023-03-17T09:41:25.320Z,11.14
2023-03-17T09:44:04.682Z,11.29
2023-03-17T09:47:04.906Z,10.48
2023-03-17T09:49:52.525Z,10.87
2023-03-17T09:52:29.468Z,11.06
2023-03-17T09:54:57.598Z,11.52
2023-03-17T09:57:35.810Z,11.49
2023-03-17T10:00:29.063Z,11.51
2023-03-17T10:02:58.648Z,11.02
2023-03-17T10:05:31.899Z,11.37
2023-03-17T10:08:32.183Z,11.60
2023-03-17T10:11:05.423Z,11.81
2023-03-17T10:14:04.901Z,11.86
2023-03-17T10:17:10.821Z,11.88
2023-03-17T10:20:01.932Z,12.12
2023-03-17T10:22:55.896Z,12.10
2023-03-17T10:25:32.685Z,11.68
2023-03-17T10:28:26.077Z,11.85
2023-03-17T10:30:54.435Z,11.93
2023-03-17T10:33:22.299Z,11.24
2023-03-17T10:35:49.559Z,12.05
2023-03-17T10:38:24.361Z,12.47
2023-03-17T10:41:09.876Z,12.50
2023-03-17T10:43:50.709Z,12.43
2023-03-17T10:46:27.086Z,12.87
2023-03-17T10:49:04.713Z,12.99
2023-03-17T10:51:36.900Z,12.40
2023-03-17T10:54:18.020Z,12.03
2023-03-17T10:56:50.698Z,13.62
2023-03-17T10:59:28.176Z,13.75
2023-03-17T11:02:02.143Z,15.93
2023-03-17T11:04:33.030Z,18.42
2023-03-17T11:07:18.880Z,18.49
2023-03-17T11:09:54.704Z,19.73
2023-03-17T11:12:29.215Z,20.25
2023-03-17T11:15:06.088Z,19.40
2023-03-17T11:17:48.770Z,18.87
2023-03-17T11:21:02.844Z,20.74
2023-03-17T11:23:40.583Z,22.01
2023-03-17T11:26:50.096Z,16.56
2023-03-17T11:30:12.844Z,14.22
2023-03-17T11:32:51.511Z,17.63
2023-03-17T11:35:53.061Z,17.86
2023-03-17T11:38:28.973Z,17.70
2023-03-17T11:41:27.168Z,17.42
2023-03-17T11:44:23.773Z,17.71
2023-03-17T11:47:32.053Z,17.80
2023-03-17T11:50:08.577Z,14.30
2023-03-17T11:53:41.615Z,15.41
2023-03-17T11:56:24.894Z,13.28
2023-03-17T11:59:02.903Z,14.63
2023-03-17T12:01:47.939Z,14.94
2023-03-17T12:04:37.911Z,14.47
2023-03-17T12:07:26.317Z,14.67
2023-03-17T12:10:34.438Z,14.21
2023-03-17T12:13:21.404Z,14.40
2023-03-17T12:16:10.832Z,14.82
2023-03-17T12:18:55.765Z,14.33
2023-03-17T12:21:59.289Z,14.66
2023-03-17T12:25:12.998Z,15.09
2023-03-17T12:28:18.582Z,14.89
2023-03-17T12:30:56.986Z,15.03
2023-03-17T12:33:43.865Z,14.90
2023-03-17T12:36:16.922Z,15.13
2023-03-17T12:39:05.522Z,15.06
2023-03-17T12:42:31.569Z,15.36
2023-03-17T12:45:25.177Z,15.15
2023-03-17T12:48:23.697Z,15.22
2023-03-17T12:51:38.375Z,14.93
2023-03-17T12:54:27.088Z,15.00
2023-03-17T12:57:16.985Z,15.17
2023-03-17T12:59:49.794Z,15.27
2023-03-17T13:02:28.708Z,15.05
2023-03-17T13:05:02.951Z,14.66
2023-03-17T13:07:45.224Z,14.94
2023-03-17T13:10:27.601Z,15.59
2023-03-17T13:13:06.984Z,15.75
2023-03-17T13:15:38.520Z,15.76
2023-03-17T13:18:15.348Z,15.71
2023-03-17T13:20:59.239Z,15.74
2023-03-17T13:23:54.982Z,15.74
2023-03-17T13:26:53.636Z,15.74
2023-03-17T13:29:32.657Z,15.66
2023-03-17T13:32:32.078Z,15.97
2023-03-17T13:35:02.295Z,15.45
2023-03-17T13:37:59.363Z,15.78
2023-03-17T13:40:55.501Z,15.89
2023-03-17T13:44:12.818Z,16.12
2023-03-17T13:46:46.621Z,15.93
2023-03-17T13:49:30.045Z,15.52
2023-03-17T13:52:11.588Z,15.65
2023-03-17T13:55:02.605Z,14.82
2023-03-17T13:57:39.576Z,14.89
2023-03-17T14:00:24.544Z,14.70
2023-03-17T14:03:06.203Z,14.46
2023-03-17T14:05:37.949Z,13.14
2023-03-17T14:08:21.776Z,14.57
2023-03-17T14:10:57.861Z,14.69
2023-03-17T14:13:32.215Z,14.86
2023-03-17T14:16:15.093Z,14.80
2023-03-17T14:18:52.649Z,15.31
2023-03-17T14:21:30.449Z,14.35
2023-03-17T14:24:25.980Z,14.22
2023-03-17T14:26:54.347Z,15.04
2023-03-17T14:29:32.520Z,14.73
2023-03-17T14:32:19.034Z,15.66
2023-03-17T14:35:12.738Z,13.83
2023-03-17T14:37:39.917Z,14.26
2023-03-17T14:40:28.270Z,14.24
2023-03-17T14:42:56.140Z,13.95
2023-03-17T14:45:30.975Z,14.67
2023-03-17T14:47:58.532Z,13.73
2023-03-17T14:50:32.264Z,13.08
2023-03-17T14:53:01.429Z,13.62
2023-03-17T14:55:39.679Z,14.20
2023-03-17T14:58:18.616Z,14.59
2023-03-17T15:00:54.690Z,14.80
2023-03-17T15:03:25.791Z,14.42
2023-03-17T15:06:27.392Z,13.74
2023-03-17T15:09:03.961Z,14.12
2023-03-17T15:11:43.665Z,15.00
2023-03-17T15:14:37.510Z,15.93
2023-03-17T15:17:17.924Z,15.52
2023-03-17T15:19:48.364Z,13.51
2023-03-17T15:22:34.612Z,13.54
2023-03-17T15:25:21.308Z,14.10
2023-03-17T15:27:48.759Z,15.33
2023-03-17T15:30:18.685Z,15.29
2023-03-17T15:33:30.453Z,14.89
2023-03-17T15:36:00.046Z,15.84
2023-03-17T15:38:28.570Z,17.81
2023-03-17T15:40:56.074Z,17.14
2023-03-17T15:43:23.820Z,17.19
2023-03-17T15:46:05.645Z,17.62
2023-03-17T15:48:39.008Z,16.89
2023-03-17T15:51:07.141Z,16.90
2023-03-17T15:53:34.381Z,17.83
2023-03-17T15:56:01.593Z,17.43
2023-03-17T15:58:28.791Z,16.41
2023-03-17T16:00:59.608Z,15.59
2023-03-17T16:03:37.627Z,15.13
2023-03-17T16:06:21.989Z,15.26
2023-03-17T16:08:50.256Z,15.40
2023-03-17T16:11:29.694Z,15.63
2023-03-17T16:14:00.514Z,15.39
2023-03-17T16:16:39.092Z,15.12
2023-03-17T16:19:10.211Z,14.92
2023-03-17T16:21:37.498Z,14.85
2023-03-17T16:24:06.001Z,14.88
2023-03-17T16:26:33.154Z,15.13
2023-03-17T16:29:00.416Z,15.09
2023-03-17T16:31:31.835Z,14.53
2023-03-17T16:33:59.289Z,14.18
2023-03-17T16:36:26.799Z,13.89
2023-03-17T16:38:54.087Z,13.75
2023-03-17T16:41:27.112Z,13.50
2023-03-17T16:44:02.784Z,13.19
2023-03-17T16:46:35.368Z,13.16
2023-03-17T16:49:04.180Z,13.10
2023-03-17T16:51:31.448Z,12.94
2023-03-17T16:53:58.667Z,13.16
2023-03-17T16:56:27.669Z,13.04
2023-03-17T16:58:54.975Z,12.83
2023-03-17T17:01:26.503Z,12.67
2023-03-17T17:03:54.685Z,12.59
2023-03-17T17:06:24.307Z,12.46
2023-03-17T17:08:52.806Z,12.33
2023-03-17T17:11:21.137Z,12.15
2023-03-17T17:13:49.307Z,12.02
2023-03-17T17:16:33.237Z,11.83
2023-03-17T17:19:01.446Z,11.84
2023-03-17T17:21:31.021Z,11.74
2023-03-17T17:23:58.677Z,11.65
2023-03-17T17:26:26.181Z,11.56
2023-03-17T17:28:53.398Z,11.47
2023-03-17T17:31:20.628Z,11.35
2023-03-17T17:33:48.094Z,11.28
2023-03-17T17:36:17.438Z,11.19
2023-03-17T17:38:44.961Z,11.13
2023-03-17T17:41:13.194Z,11.02
2023-03-17T17:43:41.136Z,10.91
2023-03-17T17:46:22.160Z,10.78
2023-03-17T17:48:50.124Z,10.68
2023-03-17T17:51:17.361Z,10.66
2023-03-17T17:53:44.817Z,10.63
2023-03-17T17:56:17.711Z,10.57
2023-03-17T17:58:45.811Z,10.58
2023-03-17T18:01:16.746Z,10.54
2023-03-17T18:03:44.018Z,10.46
2023-03-17T18:06:13.079Z,10.42
2023-03-17T18:08:41.277Z,10.36
2023-03-17T18:11:08.764Z,10.34
2023-03-17T18:13:38.846Z,10.30
2023-03-17T18:16:09.920Z,10.29
2023-03-17T18:18:40.566Z,10.16
2023-03-17T18:21:08.139Z,10.13
2023-03-17T18:23:36.457Z,10.11
2023-03-17T18:26:06.093Z,10.08
2023-03-17T18:28:34.021Z,10.01
2023-03-17T18:31:11.607Z,9.97
2023-03-17T18:33:41.626Z,9.92
2023-03-17T18:36:09.383Z,9.88
2023-03-17T18:38:40.250Z,9.82
2023-03-17T18:41:08.244Z,9.79
2023-03-17T18:43:35.457Z,9.76
2023-03-17T18:46:02.875Z,9.75
2023-03-17T18:48:30.871Z,9.66
2023-03-17T18:50:58.065Z,9.55
2023-03-17T18:53:25.325Z,9.45
2023-03-17T18:55:52.472Z,9.41
2023-03-17T18:58:19.640Z,9.35
2023-03-17T19:00:48.427Z,9.30
2023-03-17T19:03:15.829Z,9.23
2023-03-17T19:05:43.068Z,9.15
2023-03-17T19:08:10.388Z,9.11
2023-03-17T19:10:37.628Z,9.13
2023-03-17T19:13:05.153Z,9.12
2023-03-17T19:15:32.321Z,9.10
2023-03-17T19:17:59.513Z,9.09
2023-03-17T19:20:27.009Z,9.11
2023-03-17T19:22:54.688Z,9.02
2023-03-17T19:25:22.108Z,8.90
2023-03-17T19:27:49.338Z,8.83
2023-03-17T19:30:17.806Z,8.88
2023-03-17T19:32:44.982Z,8.88
2023-03-17T19:35:12.558Z,8.83
2023-03-17T19:37:39.762Z,8.73
2023-03-17T19:40:10.262Z,8.70
2023-03-17T19:42:37.741Z,8.70
2023-03-17T19:45:06.287Z,8.69
2023-03-17T19:47:33.650Z,8.63
2023-03-17T19:50:00.906Z,8.60
2023-03-17T19:52:28.093Z,8.54
2023-03-17T19:54:56.341Z,8.49
2023-03-17T19:57:23.640Z,8.45
2023-03-17T19:59:51.957Z,8.42
2023-03-17T20:02:20.416Z,8.38
2023-03-17T20:04:48.986Z,8.28
2023-03-17T20:07:16.216Z,8.22
2023-03-17T20:09:44.741Z,8.22
2023-03-17T20:12:11.922Z,8.12
2023-03-17T20:14:39.117Z,8.09
2023-03-17T20:17:06.457Z,8.09
2023-03-17T20:19:33.648Z,7.94
2023-03-17T20:22:00.983Z,7.79
2023-03-17T20:24:29.148Z,7.74
2023-03-17T20:26:57.928Z,7.67
2023-03-17T20:29:25.942Z,7.60
2023-03-17T20:31:53.291Z,7.57
2023-03-17T20:34:20.783Z,7.55
2023-03-17T20:36:48.253Z,7.51
2023-03-17T20:39:19.815Z,7.50
2023-03-17T20:41:49.760Z,7.48
2023-03-17T20:44:18.440Z,7.51
2023-03-17T20:46:46.489Z,7.44
2023-03-17T20:49:14.546Z,7.35
2023-03-17T20:51:41.724Z,7.39
2023-03-17T20:54:09.196Z,7.33
2023-03-17T20:56:37.341Z,7.32
2023-03-17T20:59:09.395Z,7.23
2023-03-17T21:01:38.740Z,7.22
2023-03-17T21:04:08.929Z,7.17
2023-03-17T21:06:38.404Z,7.11
2023-03-17T21:09:06.161Z,7.03
2023-03-17T21:11:33.700Z,7.00
2023-03-17T21:14:03.292Z,6.95
2023-03-17T21:16:30.573Z,6.93
2023-03-17T21:18:57.859Z,6.93
2023-03-17T21:21:25.057Z,6.87
2023-03-17T21:23:52.407Z,6.86
2023-03-17T21:26:19.933Z,6.90
2023-03-17T21:28:48.710Z,6.83
2023-03-17T21:31:17.121Z,6.79
2023-03-17T21:33:45.222Z,6.77
2023-03-17T21:36:12.498Z,6.74
2023-03-17T21:38:39.759Z,6.71
2023-03-17T21:41:33.422Z,6.69
2023-03-17T21:44:02.697Z,6.65
2023-03-17T21:46:31.610Z,6.63
2023-03-17T21:49:00.290Z,6.63
2023-03-17T21:51:28.460Z,6.71
2023-03-17T21:53:57.883Z,6.66
2023-03-17T21:56:25.664Z,6.57
2023-03-17T21:58:53.041Z,6.56
2023-03-17T22:01:21.713Z,6.48
2023-03-17T22:03:52.101Z,6.46
2023-03-17T22:06:20.762Z,6.37
2023-03-17T22:08:48.812Z,6.37
2023-03-17T22:11:19.421Z,6.31
2023-03-17T22:13:47.984Z,6.27
2023-03-17T22:16:16.535Z,6.25
2023-03-17T22:18:44.278Z,6.21
2023-03-17T22:21:13.389Z,6.17
2023-03-17T22:23:41.196Z,6.11
2023-03-17T22:26:16.628Z,6.06
2023-03-17T22:28:46.096Z,6.09
2023-03-17T22:31:24.294Z,6.09
2023-03-17T22:33:56.926Z,6.07
2023-03-17T22:36:25.901Z,6.02
2023-03-17T22:38:54.115Z,6.00
2023-03-17T22:41:26.986Z,5.95
2023-03-17T22:43:54.682Z,5.90
2023-03-17T22:46:22.169Z,5.87
2023-03-17T22:48:50.437Z,5.82
2023-03-17T22:51:22.835Z,5.75
2023-03-17T22:53:51.732Z,5.60
2023-03-17T22:56:20.232Z,5.69
2023-03-17T22:58:48.067Z,5.75
2023-03-17T23:01:17.488Z,5.77
2023-03-17T23:03:45.474Z,5.72
2023-03-17T23:06:14.483Z,5.65
2023-03-17T23:08:44.302Z,5.60
2023-03-17T23:11:23.773Z,5.58
2023-03-17T23:13:52.726Z,5.60
2023-03-17T23:16:21.971Z,5.58
2023-03-17T23:18:50.137Z,5.57
2023-03-17T23:21:34.310Z,5.46
2023-03-17T23:24:03.686Z,5.42
2023-03-17T23:26:31.973Z,5.49
2023-03-17T23:28:59.317Z,5.52
2023-03-17T23:31:27.371Z,5.47
2023-03-17T23:33:54.636Z,5.43
2023-03-17T23:36:22.378Z,5.35
2023-03-17T23:38:50.271Z,5.31
2023-03-17T23:41:18.393Z,5.30
2023-03-17T23:43:46.703Z,5.30
2023-03-17T23:46:14.638Z,5.27
2023-03-17T23:48:42.862Z,5.28
2023-03-17T23:51:12.513Z,5.24
2023-03-17T23:53:41.640Z,5.15
2023-03-17T23:56:11.304Z,5.09
2023-03-17T23:58:41.478Z,5.05
